sensor_id;sensor_type;location;lat;lon;timestamp;P1;durP1;ratioP1;P2;durP2;ratioP2
23300;SDS011;11819;51.394;12.340;2022-08-21T00:01:01;29.75;;;24.80;;
23300;SDS011;11819;51.394;12.340;2022-08-21T00:03:31;34.75;;;24.85;;
23300;SDS011;11819;51.394;12.340;2022-08-21T00:05:57;28.95;;;22.85;;
23300;SDS011;11819;51.394;12.340;2022-08-21T00:08:22;24.70;;;20.52;;
23300;SDS011;11819;51.394;12.340;2022-08-21T00:10:48;23.70;;;18.33;;
23300;SDS011;11819;51.394;12.340;2022-08-21T00:13:15;25.20;;;20.63;;
23300;SDS011;11819;51.394;12.340;2022-08-21T00:15:42;25.33;;;20.10;;
23300;SDS011;11819;51.394;12.340;2022-08-21T00:18:08;24.35;;;19.90;;
23300;SDS011;11819;51.394;12.340;2022-08-21T00:20:36;26.13;;;20.10;;
23300;SDS011;11819;51.394;12.340;2022-08-21T00:23:03;21.23;;;17.83;;
23300;SDS011;11819;51.394;12.340;2022-08-21T00:25:30;22.38;;;17.75;;
23300;SDS011;11819;51.394;12.340;2022-08-21T00:27:56;19.83;;;16.23;;
23300;SDS011;11819;51.394;12.340;2022-08-21T00:30:22;21.17;;;17.17;;
23300;SDS011;11819;51.394;12.340;2022-08-21T00:32:50;21.45;;;15.48;;
23300;SDS011;11819;51.394;12.340;2022-08-21T00:35:18;19.65;;;15.77;;
23300;SDS011;11819;51.394;12.340;2022-08-21T00:37:47;18.42;;;15.43;;
23300;SDS011;11819;51.394;12.340;2022-08-21T00:40:13;18.70;;;15.55;;
23300;SDS011;11819;51.394;12.340;2022-08-21T00:42:41;18.67;;;14.85;;
23300;SDS011;11819;51.394;12.340;2022-08-21T00:45:08;18.70;;;15.00;;
23300;SDS011;11819;51.394;12.340;2022-08-21T00:47:34;18.23;;;14.98;;
23300;SDS011;11819;51.394;12.340;2022-08-21T00:50:00;17.45;;;13.38;;
23300;SDS011;11819;51.394;12.340;2022-08-21T00:52:28;17.77;;;14.30;;
23300;SDS011;11819;51.394;12.340;2022-08-21T00:54:56;16.63;;;14.35;;
23300;SDS011;11819;51.394;12.340;2022-08-21T00:57:24;16.23;;;12.90;;
23300;SDS011;11819;51.394;12.340;2022-08-21T00:59:57;18.83;;;13.75;;
23300;SDS011;11819;51.394;12.340;2022-08-21T01:02:25;16.52;;;13.70;;
23300;SDS011;11819;51.394;12.340;2022-08-21T01:04:51;18.55;;;15.68;;
23300;SDS011;11819;51.394;12.340;2022-08-21T01:07:17;19.73;;;16.30;;
23300;SDS011;11819;51.394;12.340;2022-08-21T01:09:43;19.98;;;16.30;;
23300;SDS011;11819;51.394;12.340;2022-08-21T01:12:10;22.15;;;17.40;;
23300;SDS011;11819;51.394;12.340;2022-08-21T01:14:37;23.08;;;16.92;;
23300;SDS011;11819;51.394;12.340;2022-08-21T01:17:04;21.80;;;17.17;;
23300;SDS011;11819;51.394;12.340;2022-08-21T01:19:31;23.58;;;17.40;;
23300;SDS011;11819;51.394;12.340;2022-08-21T01:21:56;23.52;;;17.05;;
23300;SDS011;11819;51.394;12.340;2022-08-21T01:24:22;25.48;;;19.42;;
23300;SDS011;11819;51.394;12.340;2022-08-21T01:26:48;23.15;;;18.30;;
23300;SDS011;11819;51.394;12.340;2022-08-21T01:32:15;21.67;;;17.92;;
23300;SDS011;11819;51.394;12.340;2022-08-21T01:34:43;25.13;;;19.15;;
23300;SDS011;11819;51.394;12.340;2022-08-21T01:37:11;26.63;;;19.83;;
23300;SDS011;11819;51.394;12.340;2022-08-21T01:39:37;27.25;;;19.42;;
23300;SDS011;11819;51.394;12.340;2022-08-21T01:42:04;27.27;;;20.05;;
23300;SDS011;11819;51.394;12.340;2022-08-21T01:44:30;24.90;;;19.67;;
23300;SDS011;11819;51.394;12.340;2022-08-21T01:46:57;26.67;;;20.65;;
23300;SDS011;11819;51.394;12.340;2022-08-21T01:49:24;26.80;;;19.90;;
23300;SDS011;11819;51.394;12.340;2022-08-21T01:51:50;24.33;;;18.92;;
23300;SDS011;11819;51.394;12.340;2022-08-21T01:54:16;28.77;;;21.58;;
23300;SDS011;11819;51.394;12.340;2022-08-21T01:56:43;27.00;;;20.92;;
23300;SDS011;11819;51.394;12.340;2022-08-21T01:59:11;27.35;;;20.33;;
23300;SDS011;11819;51.394;12.340;2022-08-21T02:01:37;27.42;;;21.67;;
23300;SDS011;11819;51.394;12.340;2022-08-21T02:04:04;27.10;;;20.50;;
23300;SDS011;11819;51.394;12.340;2022-08-21T02:06:30;25.23;;;19.85;;
23300;SDS011;11819;51.394;12.340;2022-08-21T02:08:59;28.13;;;20.73;;
23300;SDS011;11819;51.394;12.340;2022-08-21T02:11:24;25.92;;;20.02;;
23300;SDS011;11819;51.394;12.340;2022-08-21T02:13:50;25.45;;;20.05;;
23300;SDS011;11819;51.394;12.340;2022-08-21T02:16:16;27.42;;;20.35;;
23300;SDS011;11819;51.394;12.340;2022-08-21T02:18:41;26.27;;;19.45;;
23300;SDS011;11819;51.394;12.340;2022-08-21T02:21:08;24.05;;;18.25;;
23300;SDS011;11819;51.394;12.340;2022-08-21T02:23:33;23.30;;;18.40;;
23300;SDS011;11819;51.394;12.340;2022-08-21T02:26:00;24.70;;;19.00;;
23300;SDS011;11819;51.394;12.340;2022-08-21T02:28:26;25.88;;;18.98;;
23300;SDS011;11819;51.394;12.340;2022-08-21T02:30:54;25.80;;;19.13;;
23300;SDS011;11819;51.394;12.340;2022-08-21T02:33:21;26.27;;;20.00;;
23300;SDS011;11819;51.394;12.340;2022-08-21T02:35:47;25.67;;;20.40;;
23300;SDS011;11819;51.394;12.340;2022-08-21T02:38:17;25.98;;;18.77;;
23300;SDS011;11819;51.394;12.340;2022-08-21T02:40:46;25.95;;;19.23;;
23300;SDS011;11819;51.394;12.340;2022-08-21T02:43:14;24.65;;;18.15;;
23300;SDS011;11819;51.394;12.340;2022-08-21T02:45:40;21.95;;;18.17;;
23300;SDS011;11819;51.394;12.340;2022-08-21T02:48:08;25.70;;;18.75;;
23300;SDS011;11819;51.394;12.340;2022-08-21T02:50:37;25.80;;;17.95;;
23300;SDS011;11819;51.394;12.340;2022-08-21T02:53:06;25.63;;;18.70;;
23300;SDS011;11819;51.394;12.340;2022-08-21T02:55:33;23.30;;;18.02;;
23300;SDS011;11819;51.394;12.340;2022-08-21T02:58:01;22.38;;;17.13;;
23300;SDS011;11819;51.394;12.340;2022-08-21T03:00:29;23.52;;;15.90;;
23300;SDS011;11819;51.394;12.340;2022-08-21T03:02:56;20.60;;;16.50;;
23300;SDS011;11819;51.394;12.340;2022-08-21T03:05:24;23.23;;;15.85;;
23300;SDS011;11819;51.394;12.340;2022-08-21T03:07:51;18.58;;;14.73;;
23300;SDS011;11819;51.394;12.340;2022-08-21T03:10:17;21.67;;;14.00;;
23300;SDS011;11819;51.394;12.340;2022-08-21T03:12:45;18.50;;;14.70;;
23300;SDS011;11819;51.394;12.340;2022-08-21T03:15:12;14.85;;;12.50;;
23300;SDS011;11819;51.394;12.340;2022-08-21T03:17:40;18.20;;;12.82;;
23300;SDS011;11819;51.394;12.340;2022-08-21T03:20:06;14.63;;;11.15;;
23300;SDS011;11819;51.394;12.340;2022-08-21T03:22:33;15.35;;;10.85;;
23300;SDS011;11819;51.394;12.340;2022-08-21T03:24:59;15.02;;;9.98;;
23300;SDS011;11819;51.394;12.340;2022-08-21T03:27:26;14.05;;;11.20;;
23300;SDS011;11819;51.394;12.340;2022-08-21T03:29:53;17.33;;;11.35;;
23300;SDS011;11819;51.394;12.340;2022-08-21T03:32:19;15.02;;;11.82;;
23300;SDS011;11819;51.394;12.340;2022-08-21T03:34:45;16.35;;;11.43;;
23300;SDS011;11819;51.394;12.340;2022-08-21T03:37:12;15.77;;;11.85;;
23300;SDS011;11819;51.394;12.340;2022-08-21T03:39:38;17.50;;;11.88;;
23300;SDS011;11819;51.394;12.340;2022-08-21T03:42:03;17.02;;;12.40;;
23300;SDS011;11819;51.394;12.340;2022-08-21T03:44:30;15.93;;;11.68;;
23300;SDS011;11819;51.394;12.340;2022-08-21T03:46:56;14.07;;;11.15;;
23300;SDS011;11819;51.394;12.340;2022-08-21T03:49:23;14.20;;;10.70;;
23300;SDS011;11819;51.394;12.340;2022-08-21T03:51:49;14.32;;;10.13;;
23300;SDS011;11819;51.394;12.340;2022-08-21T03:54:15;14.65;;;10.32;;
23300;SDS011;11819;51.394;12.340;2022-08-21T03:56:41;16.30;;;10.48;;
23300;SDS011;11819;51.394;12.340;2022-08-21T03:59:06;15.32;;;10.52;;
23300;SDS011;11819;51.394;12.340;2022-08-21T04:01:33;12.48;;;9.70;;
23300;SDS011;11819;51.394;12.340;2022-08-21T04:03:58;13.57;;;9.60;;
23300;SDS011;11819;51.394;12.340;2022-08-21T04:06:24;13.63;;;9.55;;
23300;SDS011;11819;51.394;12.340;2022-08-21T04:08:50;11.68;;;9.20;;
23300;SDS011;11819;51.394;12.340;2022-08-21T04:11:16;11.73;;;8.90;;
23300;SDS011;11819;51.394;12.340;2022-08-21T04:13:41;14.23;;;9.65;;
23300;SDS011;11819;51.394;12.340;2022-08-21T04:16:07;17.20;;;10.13;;
23300;SDS011;11819;51.394;12.340;2022-08-21T04:18:34;13.73;;;9.50;;
23300;SDS011;11819;51.394;12.340;2022-08-21T04:21:00;14.13;;;8.85;;
23300;SDS011;11819;51.394;12.340;2022-08-21T04:23:27;14.48;;;9.30;;
23300;SDS011;11819;51.394;12.340;2022-08-21T04:25:54;15.00;;;10.25;;
23300;SDS011;11819;51.394;12.340;2022-08-21T04:28:21;12.05;;;9.13;;
23300;SDS011;11819;51.394;12.340;2022-08-21T04:30:47;13.80;;;9.68;;
23300;SDS011;11819;51.394;12.340;2022-08-21T04:33:13;12.88;;;8.65;;
23300;SDS011;11819;51.394;12.340;2022-08-21T04:35:39;13.60;;;8.65;;
23300;SDS011;11819;51.394;12.340;2022-08-21T04:38:05;13.98;;;8.73;;
23300;SDS011;11819;51.394;12.340;2022-08-21T04:40:31;12.77;;;8.35;;
23300;SDS011;11819;51.394;12.340;2022-08-21T04:43:00;12.50;;;8.88;;
23300;SDS011;11819;51.394;12.340;2022-08-21T04:45:28;11.65;;;8.52;;
23300;SDS011;11819;51.394;12.340;2022-08-21T04:47:57;15.52;;;8.32;;
23300;SDS011;11819;51.394;12.340;2022-08-21T04:50:26;10.98;;;8.30;;
23300;SDS011;11819;51.394;12.340;2022-08-21T04:53:03;11.65;;;8.05;;
23300;SDS011;11819;51.394;12.340;2022-08-21T04:55:31;12.23;;;8.75;;
23300;SDS011;11819;51.394;12.340;2022-08-21T04:57:57;11.75;;;8.80;;
23300;SDS011;11819;51.394;12.340;2022-08-21T05:00:24;12.52;;;8.43;;
23300;SDS011;11819;51.394;12.340;2022-08-21T05:02:50;13.93;;;8.25;;
23300;SDS011;11819;51.394;12.340;2022-08-21T05:05:21;9.75;;;7.50;;
23300;SDS011;11819;51.394;12.340;2022-08-21T05:07:47;14.68;;;9.48;;
23300;SDS011;11819;51.394;12.340;2022-08-21T05:10:13;12.18;;;8.40;;
23300;SDS011;11819;51.394;12.340;2022-08-21T05:12:40;9.70;;;8.15;;
23300;SDS011;11819;51.394;12.340;2022-08-21T05:15:07;12.88;;;9.18;;
23300;SDS011;11819;51.394;12.340;2022-08-21T05:17:33;12.85;;;8.02;;
23300;SDS011;11819;51.394;12.340;2022-08-21T05:19:58;11.98;;;7.35;;
23300;SDS011;11819;51.394;12.340;2022-08-21T05:22:24;12.32;;;7.95;;
23300;SDS011;11819;51.394;12.340;2022-08-21T05:24:50;11.55;;;8.02;;
23300;SDS011;11819;51.394;12.340;2022-08-21T05:27:17;11.38;;;8.27;;
23300;SDS011;11819;51.394;12.340;2022-08-21T05:29:42;10.98;;;7.63;;
23300;SDS011;11819;51.394;12.340;2022-08-21T05:32:12;11.15;;;7.80;;
23300;SDS011;11819;51.394;12.340;2022-08-21T05:34:38;13.32;;;7.72;;
23300;SDS011;11819;51.394;12.340;2022-08-21T05:37:04;10.48;;;7.82;;
23300;SDS011;11819;51.394;12.340;2022-08-21T05:39:30;12.50;;;8.00;;
23300;SDS011;11819;51.394;12.340;2022-08-21T05:41:56;15.02;;;7.53;;
23300;SDS011;11819;51.394;12.340;2022-08-21T05:44:22;11.38;;;7.82;;
23300;SDS011;11819;51.394;12.340;2022-08-21T05:46:47;10.32;;;7.10;;
23300;SDS011;11819;51.394;12.340;2022-08-21T05:49:13;11.27;;;8.05;;
23300;SDS011;11819;51.394;12.340;2022-08-21T05:51:41;12.18;;;8.10;;
23300;SDS011;11819;51.394;12.340;2022-08-21T05:54:07;12.82;;;8.20;;
23300;SDS011;11819;51.394;12.340;2022-08-21T05:56:33;14.73;;;9.45;;
23300;SDS011;11819;51.394;12.340;2022-08-21T05:58:58;13.07;;;7.60;;
23300;SDS011;11819;51.394;12.340;2022-08-21T06:01:24;12.70;;;7.70;;
23300;SDS011;11819;51.394;12.340;2022-08-21T06:03:50;12.10;;;7.88;;
23300;SDS011;11819;51.394;12.340;2022-08-21T06:06:16;10.13;;;7.50;;
23300;SDS011;11819;51.394;12.340;2022-08-21T06:08:41;10.80;;;7.53;;
23300;SDS011;11819;51.394;12.340;2022-08-21T06:11:08;12.65;;;8.30;;
23300;SDS011;11819;51.394;12.340;2022-08-21T06:13:34;12.80;;;8.35;;
23300;SDS011;11819;51.394;12.340;2022-08-21T06:16:01;11.35;;;7.72;;
23300;SDS011;11819;51.394;12.340;2022-08-21T06:18:28;11.82;;;7.68;;
23300;SDS011;11819;51.394;12.340;2022-08-21T06:20:54;11.88;;;7.05;;
23300;SDS011;11819;51.394;12.340;2022-08-21T06:23:20;11.82;;;7.70;;
23300;SDS011;11819;51.394;12.340;2022-08-21T06:25:45;15.30;;;7.45;;
23300;SDS011;11819;51.394;12.340;2022-08-21T06:28:11;11.23;;;7.85;;
23300;SDS011;11819;51.394;12.340;2022-08-21T06:30:38;10.98;;;7.35;;
23300;SDS011;11819;51.394;12.340;2022-08-21T06:33:04;11.25;;;7.10;;
23300;SDS011;11819;51.394;12.340;2022-08-21T06:35:31;12.18;;;7.68;;
23300;SDS011;11819;51.394;12.340;2022-08-21T06:37:58;11.10;;;7.10;;
23300;SDS011;11819;51.394;12.340;2022-08-21T06:40:24;9.35;;;6.85;;
23300;SDS011;11819;51.394;12.340;2022-08-21T06:42:51;12.23;;;7.30;;
23300;SDS011;11819;51.394;12.340;2022-08-21T06:45:17;8.68;;;6.75;;
23300;SDS011;11819;51.394;12.340;2022-08-21T06:47:42;11.07;;;7.13;;
23300;SDS011;11819;51.394;12.340;2022-08-21T06:50:08;13.02;;;8.00;;
23300;SDS011;11819;51.394;12.340;2022-08-21T06:52:35;12.93;;;6.93;;
23300;SDS011;11819;51.394;12.340;2022-08-21T06:55:02;14.60;;;6.68;;
23300;SDS011;11819;51.394;12.340;2022-08-21T06:57:30;12.27;;;6.57;;
23300;SDS011;11819;51.394;12.340;2022-08-21T06:59:56;8.20;;;6.47;;
23300;SDS011;11819;51.394;12.340;2022-08-21T07:02:22;10.15;;;6.80;;
23300;SDS011;11819;51.394;12.340;2022-08-21T07:04:47;9.60;;;6.60;;
23300;SDS011;11819;51.394;12.340;2022-08-21T07:07:13;12.13;;;6.63;;
23300;SDS011;11819;51.394;12.340;2022-08-21T07:09:39;12.10;;;6.50;;
23300;SDS011;11819;51.394;12.340;2022-08-21T07:12:05;11.82;;;7.05;;
23300;SDS011;11819;51.394;12.340;2022-08-21T07:14:31;11.20;;;6.47;;
23300;SDS011;11819;51.394;12.340;2022-08-21T07:16:56;14.45;;;8.23;;
23300;SDS011;11819;51.394;12.340;2022-08-21T07:19:22;11.30;;;7.32;;
23300;SDS011;11819;51.394;12.340;2022-08-21T07:21:48;11.48;;;7.28;;
23300;SDS011;11819;51.394;12.340;2022-08-21T07:24:13;11.52;;;6.45;;
23300;SDS011;11819;51.394;12.340;2022-08-21T07:26:39;9.35;;;6.40;;
23300;SDS011;11819;51.394;12.340;2022-08-21T07:29:05;9.30;;;5.93;;
23300;SDS011;11819;51.394;12.340;2022-08-21T07:31:31;9.48;;;5.63;;
23300;SDS011;11819;51.394;12.340;2022-08-21T07:33:56;7.78;;;5.68;;
23300;SDS011;11819;51.394;12.340;2022-08-21T07:36:22;12.45;;;6.60;;
23300;SDS011;11819;51.394;12.340;2022-08-21T07:38:48;8.20;;;5.55;;
23300;SDS011;11819;51.394;12.340;2022-08-21T07:41:18;8.43;;;5.35;;
23300;SDS011;11819;51.394;12.340;2022-08-21T07:43:48;10.13;;;5.70;;
23300;SDS011;11819;51.394;12.340;2022-08-21T07:46:14;9.70;;;5.60;;
23300;SDS011;11819;51.394;12.340;2022-08-21T07:48:40;10.63;;;5.43;;
23300;SDS011;11819;51.394;12.340;2022-08-21T07:51:07;9.43;;;5.40;;
23300;SDS011;11819;51.394;12.340;2022-08-21T07:53:35;9.82;;;5.53;;
23300;SDS011;11819;51.394;12.340;2022-08-21T07:56:01;9.43;;;5.00;;
23300;SDS011;11819;51.394;12.340;2022-08-21T07:58:28;10.15;;;5.30;;
23300;SDS011;11819;51.394;12.340;2022-08-21T08:00:54;10.18;;;5.07;;
23300;SDS011;11819;51.394;12.340;2022-08-21T08:03:19;10.43;;;5.20;;
23300;SDS011;11819;51.394;12.340;2022-08-21T08:05:45;7.15;;;4.38;;
23300;SDS011;11819;51.394;12.340;2022-08-21T08:08:10;9.88;;;5.07;;
23300;SDS011;11819;51.394;12.340;2022-08-21T08:10:37;9.00;;;5.10;;
23300;SDS011;11819;51.394;12.340;2022-08-21T08:13:04;8.85;;;4.70;;
23300;SDS011;11819;51.394;12.340;2022-08-21T08:15:29;8.25;;;4.85;;
23300;SDS011;11819;51.394;12.340;2022-08-21T08:17:55;9.20;;;4.93;;
23300;SDS011;11819;51.394;12.340;2022-08-21T08:20:22;10.63;;;5.50;;
23300;SDS011;11819;51.394;12.340;2022-08-21T08:22:51;9.45;;;5.00;;
23300;SDS011;11819;51.394;12.340;2022-08-21T08:25:18;8.35;;;4.88;;
23300;SDS011;11819;51.394;12.340;2022-08-21T08:27:44;7.82;;;4.80;;
23300;SDS011;11819;51.394;12.340;2022-08-21T08:30:12;7.85;;;4.78;;
23300;SDS011;11819;51.394;12.340;2022-08-21T08:32:39;9.63;;;5.25;;
23300;SDS011;11819;51.394;12.340;2022-08-21T08:35:05;8.10;;;4.25;;
23300;SDS011;11819;51.394;12.340;2022-08-21T08:37:31;8.85;;;4.80;;
23300;SDS011;11819;51.394;12.340;2022-08-21T08:39:58;10.63;;;4.93;;
23300;SDS011;11819;51.394;12.340;2022-08-21T08:42:25;7.10;;;4.93;;
23300;SDS011;11819;51.394;12.340;2022-08-21T08:44:58;8.07;;;4.35;;
23300;SDS011;11819;51.394;12.340;2022-08-21T08:47:34;11.40;;;5.15;;
23300;SDS011;11819;51.394;12.340;2022-08-21T08:52:37;8.63;;;4.35;;
23300;SDS011;11819;51.394;12.340;2022-08-21T08:55:11;8.27;;;4.13;;
23300;SDS011;11819;51.394;12.340;2022-08-21T08:57:42;7.63;;;4.40;;
23300;SDS011;11819;51.394;12.340;2022-08-21T09:00:11;5.45;;;3.40;;
23300;SDS011;11819;51.394;12.340;2022-08-21T09:02:39;5.47;;;3.53;;
23300;SDS011;11819;51.394;12.340;2022-08-21T09:05:07;8.20;;;3.80;;
23300;SDS011;11819;51.394;12.340;2022-08-21T09:07:40;7.78;;;4.53;;
23300;SDS011;11819;51.394;12.340;2022-08-21T09:10:18;6.57;;;3.20;;
23300;SDS011;11819;51.394;12.340;2022-08-21T09:12:59;5.97;;;3.70;;
23300;SDS011;11819;51.394;12.340;2022-08-21T09:21:02;8.43;;;4.30;;
23300;SDS011;11819;51.394;12.340;2022-08-21T09:26:18;7.13;;;4.25;;
23300;SDS011;11819;51.394;12.340;2022-08-21T09:28:46;7.00;;;4.25;;
23300;SDS011;11819;51.394;12.340;2022-08-21T09:31:22;8.00;;;4.03;;
23300;SDS011;11819;51.394;12.340;2022-08-21T09:34:01;7.15;;;4.25;;
23300;SDS011;11819;51.394;12.340;2022-08-21T09:36:39;8.15;;;3.88;;
23300;SDS011;11819;51.394;12.340;2022-08-21T09:39:09;9.70;;;4.45;;
23300;SDS011;11819;51.394;12.340;2022-08-21T09:41:37;7.38;;;3.83;;
23300;SDS011;11819;51.394;12.340;2022-08-21T09:44:04;6.68;;;3.60;;
23300;SDS011;11819;51.394;12.340;2022-08-21T09:46:32;8.55;;;4.40;;
23300;SDS011;11819;51.394;12.340;2022-08-21T09:48:59;7.75;;;4.65;;
23300;SDS011;11819;51.394;12.340;2022-08-21T09:51:36;7.53;;;4.43;;
23300;SDS011;11819;51.394;12.340;2022-08-21T09:56:51;10.07;;;5.03;;
23300;SDS011;11819;51.394;12.340;2022-08-21T09:59:39;9.48;;;3.97;;
23300;SDS011;11819;51.394;12.340;2022-08-21T10:04:59;7.43;;;4.13;;
23300;SDS011;11819;51.394;12.340;2022-08-21T10:07:28;8.35;;;5.13;;
23300;SDS011;11819;51.394;12.340;2022-08-21T10:10:04;10.25;;;4.18;;
23300;SDS011;11819;51.394;12.340;2022-08-21T10:12:35;7.57;;;4.72;;
23300;SDS011;11819;51.394;12.340;2022-08-21T10:15:27;8.88;;;4.45;;
23300;SDS011;11819;51.394;12.340;2022-08-21T10:18:21;11.40;;;4.88;;
23300;SDS011;11819;51.394;12.340;2022-08-21T10:20:52;8.57;;;4.40;;
23300;SDS011;11819;51.394;12.340;2022-08-21T10:23:40;9.15;;;4.55;;
23300;SDS011;11819;51.394;12.340;2022-08-21T10:26:33;9.07;;;4.38;;
23300;SDS011;11819;51.394;12.340;2022-08-21T10:35:13;7.70;;;4.80;;
23300;SDS011;11819;51.394;12.340;2022-08-21T10:43:30;8.10;;;4.07;;
23300;SDS011;11819;51.394;12.340;2022-08-21T10:46:14;7.97;;;4.03;;
23300;SDS011;11819;51.394;12.340;2022-08-21T10:48:53;6.93;;;4.20;;
23300;SDS011;11819;51.394;12.340;2022-08-21T10:54:29;8.98;;;4.20;;
23300;SDS011;11819;51.394;12.340;2022-08-21T10:57:25;11.40;;;4.60;;
23300;SDS011;11819;51.394;12.340;2022-08-21T11:00:05;8.10;;;4.20;;
23300;SDS011;11819;51.394;12.340;2022-08-21T11:08:02;7.50;;;4.18;;
23300;SDS011;11819;51.394;12.340;2022-08-21T11:13:11;9.48;;;4.72;;
23300;SDS011;11819;51.394;12.340;2022-08-21T11:15:51;8.93;;;4.60;;
23300;SDS011;11819;51.394;12.340;2022-08-21T11:23:26;7.72;;;4.05;;
23300;SDS011;11819;51.394;12.340;2022-08-21T11:26:00;8.70;;;4.22;;
23300;SDS011;11819;51.394;12.340;2022-08-21T11:28:33;6.65;;;3.85;;
23300;SDS011;11819;51.394;12.340;2022-08-21T11:31:17;9.10;;;5.05;;
23300;SDS011;11819;51.394;12.340;2022-08-21T11:34:01;9.32;;;4.18;;
23300;SDS011;11819;51.394;12.340;2022-08-21T11:39:31;9.50;;;4.50;;
23300;SDS011;11819;51.394;12.340;2022-08-21T11:42:18;7.55;;;4.03;;
23300;SDS011;11819;51.394;12.340;2022-08-21T11:44:56;8.02;;;4.10;;
23300;SDS011;11819;51.394;12.340;2022-08-21T11:47:43;7.05;;;4.13;;
23300;SDS011;11819;51.394;12.340;2022-08-21T11:50:26;6.40;;;4.38;;
23300;SDS011;11819;51.394;12.340;2022-08-21T11:52:56;7.82;;;4.28;;
23300;SDS011;11819;51.394;12.340;2022-08-21T11:58:11;8.52;;;4.57;;
23300;SDS011;11819;51.394;12.340;2022-08-21T12:00:49;6.40;;;3.75;;
23300;SDS011;11819;51.394;12.340;2022-08-21T12:03:31;8.25;;;4.25;;
23300;SDS011;11819;51.394;12.340;2022-08-21T12:06:00;9.95;;;3.85;;
23300;SDS011;11819;51.394;12.340;2022-08-21T12:08:35;7.85;;;3.65;;
23300;SDS011;11819;51.394;12.340;2022-08-21T12:11:20;7.28;;;3.90;;
23300;SDS011;11819;51.394;12.340;2022-08-21T12:13:56;5.35;;;3.50;;
23300;SDS011;11819;51.394;12.340;2022-08-21T12:16:41;8.02;;;4.07;;
23300;SDS011;11819;51.394;12.340;2022-08-21T12:19:28;9.30;;;5.00;;
23300;SDS011;11819;51.394;12.340;2022-08-21T12:30:06;10.80;;;4.68;;
23300;SDS011;11819;51.394;12.340;2022-08-21T12:32:57;11.18;;;4.20;;
23300;SDS011;11819;51.394;12.340;2022-08-21T12:35:26;9.57;;;4.43;;
23300;SDS011;11819;51.394;12.340;2022-08-21T12:40:55;8.20;;;3.72;;
23300;SDS011;11819;51.394;12.340;2022-08-21T12:43:31;6.80;;;3.92;;
23300;SDS011;11819;51.394;12.340;2022-08-21T12:46:00;7.40;;;4.07;;
23300;SDS011;11819;51.394;12.340;2022-08-21T12:48:41;8.77;;;4.28;;
23300;SDS011;11819;51.394;12.340;2022-08-21T12:52:00;12.77;;;4.60;;
23300;SDS011;11819;51.394;12.340;2022-08-21T12:54:08;7.60;;;4.10;;
23300;SDS011;11819;51.394;12.340;2022-08-21T12:56:34;5.43;;;4.22;;
23300;SDS011;11819;51.394;12.340;2022-08-21T12:59:05;6.88;;;4.10;;
23300;SDS011;11819;51.394;12.340;2022-08-21T13:01:43;8.55;;;4.30;;
23300;SDS011;11819;51.394;12.340;2022-08-21T13:04:15;9.82;;;4.00;;
23300;SDS011;11819;51.394;12.340;2022-08-21T13:06:45;9.05;;;4.03;;
23300;SDS011;11819;51.394;12.340;2022-08-21T13:09:15;7.57;;;4.20;;
23300;SDS011;11819;51.394;12.340;2022-08-21T13:11:44;8.27;;;4.10;;
23300;SDS011;11819;51.394;12.340;2022-08-21T13:14:26;7.00;;;3.90;;
23300;SDS011;11819;51.394;12.340;2022-08-21T13:17:07;6.25;;;4.15;;
23300;SDS011;11819;51.394;12.340;2022-08-21T13:19:34;8.10;;;3.97;;
23300;SDS011;11819;51.394;12.340;2022-08-21T13:22:00;6.80;;;4.65;;
23300;SDS011;11819;51.394;12.340;2022-08-21T13:24:33;8.57;;;4.15;;
23300;SDS011;11819;51.394;12.340;2022-08-21T13:27:00;6.97;;;4.20;;
23300;SDS011;11819;51.394;12.340;2022-08-21T13:29:28;6.38;;;3.90;;
23300;SDS011;11819;51.394;12.340;2022-08-21T13:31:57;8.60;;;4.10;;
23300;SDS011;11819;51.394;12.340;2022-08-21T13:34:28;7.47;;;3.97;;
23300;SDS011;11819;51.394;12.340;2022-08-21T13:37:00;6.78;;;4.05;;
23300;SDS011;11819;51.394;12.340;2022-08-21T13:39:28;7.40;;;3.70;;
23300;SDS011;11819;51.394;12.340;2022-08-21T13:41:55;6.88;;;4.03;;
23300;SDS011;11819;51.394;12.340;2022-08-21T13:46:51;7.50;;;3.92;;
23300;SDS011;11819;51.394;12.340;2022-08-21T13:49:19;6.43;;;3.55;;
23300;SDS011;11819;51.394;12.340;2022-08-21T13:51:49;6.70;;;4.05;;
23300;SDS011;11819;51.394;12.340;2022-08-21T13:56:52;7.35;;;3.70;;
23300;SDS011;11819;51.394;12.340;2022-08-21T13:59:25;5.80;;;3.58;;
23300;SDS011;11819;51.394;12.340;2022-08-21T14:02:08;7.28;;;3.42;;
23300;SDS011;11819;51.394;12.340;2022-08-21T14:04:35;8.15;;;3.90;;
23300;SDS011;11819;51.394;12.340;2022-08-21T14:07:13;7.00;;;3.88;;
23300;SDS011;11819;51.394;12.340;2022-08-21T14:09:43;8.85;;;3.88;;
23300;SDS011;11819;51.394;12.340;2022-08-21T14:12:17;7.10;;;3.60;;
23300;SDS011;11819;51.394;12.340;2022-08-21T14:14:53;8.02;;;3.85;;
23300;SDS011;11819;51.394;12.340;2022-08-21T14:17:28;7.00;;;3.60;;
23300;SDS011;11819;51.394;12.340;2022-08-21T14:19:57;5.68;;;3.22;;
23300;SDS011;11819;51.394;12.340;2022-08-21T14:25:14;8.85;;;4.07;;
23300;SDS011;11819;51.394;12.340;2022-08-21T14:27:53;6.60;;;3.53;;
23300;SDS011;11819;51.394;12.340;2022-08-21T14:30:29;7.15;;;3.70;;
23300;SDS011;11819;51.394;12.340;2022-08-21T14:32:56;7.60;;;3.70;;
23300;SDS011;11819;51.394;12.340;2022-08-21T14:35:22;5.13;;;3.65;;
23300;SDS011;11819;51.394;12.340;2022-08-21T14:37:48;8.30;;;3.97;;
23300;SDS011;11819;51.394;12.340;2022-08-21T14:40:19;6.00;;;3.53;;
23300;SDS011;11819;51.394;12.340;2022-08-21T14:42:46;6.30;;;3.22;;
23300;SDS011;11819;51.394;12.340;2022-08-21T14:45:28;7.00;;;3.90;;
23300;SDS011;11819;51.394;12.340;2022-08-21T14:47:55;7.32;;;3.38;;
23300;SDS011;11819;51.394;12.340;2022-08-21T14:50:22;6.78;;;3.33;;
23300;SDS011;11819;51.394;12.340;2022-08-21T14:52:48;7.10;;;3.60;;
23300;SDS011;11819;51.394;12.340;2022-08-21T14:55:14;11.07;;;4.45;;
23300;SDS011;11819;51.394;12.340;2022-08-21T14:57:41;7.57;;;3.90;;
23300;SDS011;11819;51.394;12.340;2022-08-21T15:00:11;9.57;;;3.50;;
23300;SDS011;11819;51.394;12.340;2022-08-21T15:02:39;7.40;;;3.47;;
23300;SDS011;11819;51.394;12.340;2022-08-21T15:05:04;7.22;;;3.80;;
23300;SDS011;11819;51.394;12.340;2022-08-21T15:07:34;7.70;;;4.00;;
23300;SDS011;11819;51.394;12.340;2022-08-21T15:10:00;7.55;;;4.35;;
23300;SDS011;11819;51.394;12.340;2022-08-21T15:12:26;6.07;;;3.85;;
23300;SDS011;11819;51.394;12.340;2022-08-21T15:14:52;9.10;;;4.70;;
23300;SDS011;11819;51.394;12.340;2022-08-21T15:17:18;7.30;;;3.50;;
23300;SDS011;11819;51.394;12.340;2022-08-21T15:19:44;19.55;;;17.60;;
23300;SDS011;11819;51.394;12.340;2022-08-21T15:22:09;9.45;;;5.65;;
23300;SDS011;11819;51.394;12.340;2022-08-21T15:24:35;7.90;;;4.43;;
23300;SDS011;11819;51.394;12.340;2022-08-21T15:27:01;14.15;;;10.35;;
23300;SDS011;11819;51.394;12.340;2022-08-21T15:29:29;10.45;;;7.18;;
23300;SDS011;11819;51.394;12.340;2022-08-21T15:31:56;8.25;;;3.80;;
23300;SDS011;11819;51.394;12.340;2022-08-21T15:34:26;10.55;;;5.68;;
23300;SDS011;11819;51.394;12.340;2022-08-21T15:36:53;7.18;;;3.67;;
23300;SDS011;11819;51.394;12.340;2022-08-21T15:39:23;7.70;;;4.40;;
23300;SDS011;11819;51.394;12.340;2022-08-21T15:41:49;7.72;;;4.07;;
23300;SDS011;11819;51.394;12.340;2022-08-21T15:44:15;8.43;;;3.92;;
23300;SDS011;11819;51.394;12.340;2022-08-21T15:46:41;10.80;;;5.40;;